Time;durP1;ratioP1;P1;durP2;ratioP2;P2;SDS_P1;SDS_P2;PMS_P1;PMS_P2;Temp;Humidity;BMP_temperature;BMP_pressure;BME280_temperature;BME280_humidity;BME280_pressure;Samples;Min_cycle;Max_cycle;Signal;HPM_P1;HPM_P2
2024/01/14 00:02:06;;;;;;;26.67;11.60;;;;;;;;;;7383058;19;20042;-74
2024/01/14 00:04:32;;;;;;;24.33;10.80;;;;;;;;;;7379994;19;20070;-74
2024/01/14 00:06:57;;;;;;;31.70;12.80;;;;;;;;;;7382016;19;20006;-74
2024/01/14 00:09:22;;;;;;;28.10;11.27;;;;;;;;;;7379478;19;20032;-75
2024/01/14 00:11:48;;;;;;;24.40;11.48;;;;;;;;;;7400751;19;20023;-74
2024/01/14 00:14:14;;;;;;;24.40;10.05;;;;;;;;;;7375127;19;20023;-75
2024/01/14 00:16:39;;;;;;;25.20;11.80;;;;;;;;;;7380677;19;19998;-73
2024/01/14 00:19:05;;;;;;;28.17;11.80;;;;;;;;;;7374699;19;20563;-74
2024/01/14 00:21:31;;;;;;;28.85;12.90;;;;;;;;;;7374889;19;20550;-74
2024/01/14 00:23:56;;;;;;;27.88;12.27;;;;;;;;;;7393908;19;20370;-74
2024/01/14 00:26:24;;;;;;;26.83;11.20;;;;;;;;;;7376121;19;20006;-74
2024/01/14 00:28:50;;;;;;;22.30;9.88;;;;;;;;;;7381369;19;20711;-75
2024/01/14 00:31:16;;;;;;;22.75;11.20;;;;;;;;;;7383495;19;20116;-75
2024/01/14 00:33:41;;;;;;;24.23;12.32;;;;;;;;;;7380834;19;20006;-75
2024/01/14 00:36:07;;;;;;;28.52;11.30;;;;;;;;;;7400646;19;20003;-76
2024/01/14 00:38:32;;;;;;;23.50;11.13;;;;;;;;;;7382399;19;20010;-75
2024/01/14 00:40:58;;;;;;;26.20;11.95;;;;;;;;;;7384891;19;20010;-75
2024/01/14 00:43:23;;;;;;;28.73;10.85;;;;;;;;;;7368952;19;20003;-75
2024/01/14 00:45:49;;;;;;;23.33;11.57;;;;;;;;;;7371409;19;20393;-76
2024/01/14 00:48:14;;;;;;;26.38;10.85;;;;;;;;;;7386639;19;20530;-75
2024/01/14 00:50:39;;;;;;;23.38;10.90;;;;;;;;;;7366687;19;20039;-75
2024/01/14 00:53:05;;;;;;;22.95;10.25;;;;;;;;;;7366278;19;20014;-75
2024/01/14 00:55:30;;;;;;;23.23;10.25;;;;;;;;;;7366949;19;20330;-75
2024/01/14 00:57:56;;;;;;;25.30;10.50;;;;;;;;;;7365784;19;20014;-75
2024/01/14 01:00:21;;;;;;;24.77;11.52;;;;;;;;;;7368113;19;20048;-74
2024/01/14 01:02:47;;;;;;;26.13;10.60;;;;;;;;;;7387408;19;20074;-73
2024/01/14 01:05:13;;;;;;;24.23;10.13;;;;;;;;;;7367464;19;20006;-75
2024/01/14 01:07:38;;;;;;;26.27;10.82;;;;;;;;;;7365452;19;20025;-75
2024/01/14 01:10:05;;;;;;;24.50;11.02;;;;;;;;;;7368294;19;20014;-75
2024/01/14 01:12:31;;;;;;;22.60;10.50;;;;;;;;;;7365801;19;20010;-75
2024/01/14 01:14:56;;;;;;;23.45;10.70;;;;;;;;;;7387796;19;20019;-75
2024/01/14 01:17:21;;;;;;;28.02;11.90;;;;;;;;;;7365605;19;20002;-75
2024/01/14 01:19:46;;;;;;;22.15;10.38;;;;;;;;;;7365918;19;20044;-75
2024/01/14 01:22:12;;;;;;;25.52;10.82;;;;;;;;;;7367595;19;20564;-74
2024/01/14 01:24:38;;;;;;;23.63;9.93;;;;;;;;;;7364938;19;20545;-74
2024/01/14 01:27:04;;;;;;;25.02;11.07;;;;;;;;;;7388232;19;20066;-75
2024/01/14 01:29:30;;;;;;;28.85;10.80;;;;;;;;;;7366522;19;20044;-75
2024/01/14 01:31:55;;;;;;;28.95;11.82;;;;;;;;;;7366418;19;20006;-75
2024/01/14 01:34:21;;;;;;;28.17;11.15;;;;;;;;;;7366559;19;20035;-75
2024/01/14 01:36:46;;;;;;;25.27;11.20;;;;;;;;;;7367642;19;20851;-76
2024/01/14 01:39:14;;;;;;;22.40;10.43;;;;;;;;;;7388372;19;20002;-75
2024/01/14 01:41:39;;;;;;;27.15;11.55;;;;;;;;;;7365440;19;20062;-75
2024/01/14 01:44:04;;;;;;;23.73;10.60;;;;;;;;;;7361476;19;20006;-75
2024/01/14 01:46:30;;;;;;;24.98;10.77;;;;;;;;;;7365270;19;20010;-75
2024/01/14 01:48:56;;;;;;;24.60;10.85;;;;;;;;;;7364547;19;20839;-75
2024/01/14 01:51:22;;;;;;;26.15;10.70;;;;;;;;;;7365513;19;20436;-75
2024/01/14 01:53:48;;;;;;;21.83;10.23;;;;;;;;;;7384444;19;20657;-75
2024/01/14 01:56:14;;;;;;;27.35;10.55;;;;;;;;;;7361231;19;20018;-75
2024/01/14 01:58:40;;;;;;;24.73;11.02;;;;;;;;;;7361890;19;20057;-75
2024/01/14 02:01:05;;;;;;;26.77;10.38;;;;;;;;;;7363162;19;20007;-74
2024/01/14 02:03:32;;;;;;;20.38;10.02;;;;;;;;;;7363121;19;20014;-74
2024/01/14 02:05:59;;;;;;;21.70;10.45;;;;;;;;;;7386099;19;20017;-74
2024/01/14 02:08:25;;;;;;;26.70;10.82;;;;;;;;;;7361407;19;20381;-75
2024/01/14 02:10:51;;;;;;;28.02;11.32;;;;;;;;;;7363480;19;20003;-74
2024/01/14 02:13:17;;;;;;;24.73;10.18;;;;;;;;;;7363684;19;20370;-75
2024/01/14 02:15:42;;;;;;;24.13;10.48;;;;;;;;;;7365568;19;20031;-74
2024/01/14 02:18:07;;;;;;;20.80;9.80;;;;;;;;;;7385738;19;20030;-75
2024/01/14 02:20:33;;;;;;;25.30;11.18;;;;;;;;;;7364333;19;20040;-74
2024/01/14 02:22:59;;;;;;;22.52;10.13;;;;;;;;;;7363707;19;20042;-74
2024/01/14 02:25:25;;;;;;;24.35;10.23;;;;;;;;;;7363838;19;20003;-74
2024/01/14 02:27:51;;;;;;;23.30;10.75;;;;;;;;;;7362793;19;20010;-74
2024/01/14 02:30:17;;;;;;;24.23;10.10;;;;;;;;;;7374905;19;20344;-74
2024/01/14 02:32:42;;;;;;;23.17;10.57;;;;;;;;;;7386043;19;20003;-74
2024/01/14 02:35:08;;;;;;;23.90;10.48;;;;;;;;;;7363834;19;20017;-74
2024/01/14 02:37:34;;;;;;;28.13;11.48;;;;;;;;;;7364685;19;20014;-73
2024/01/14 02:40:00;;;;;;;21.92;9.10;;;;;;;;;;7364342;19;20030;-74
2024/01/14 02:42:25;;;;;;;20.45;9.75;;;;;;;;;;7365702;19;20161;-74
2024/01/14 02:44:50;;;;;;;19.35;9.05;;;;;;;;;;7385055;19;20011;-74
2024/01/14 02:47:16;;;;;;;21.48;9.15;;;;;;;;;;7364396;19;20002;-74
2024/01/14 02:49:41;;;;;;;18.95;8.23;;;;;;;;;;7367475;19;19999;-73
2024/01/14 02:52:07;;;;;;;24.40;9.88;;;;;;;;;;7382433;19;20007;-74
2024/01/14 02:54:32;;;;;;;22.80;9.32;;;;;;;;;;7371095;19;20016;-75
2024/01/14 02:56:58;;;;;;;21.92;9.70;;;;;;;;;;7403418;19;20031;-75
2024/01/14 02:59:23;;;;;;;23.88;9.93;;;;;;;;;;7384232;19;20010;-75
2024/01/14 03:01:48;;;;;;;20.40;9.23;;;;;;;;;;7378655;19;20069;-75
2024/01/14 03:04:14;;;;;;;24.90;9.57;;;;;;;;;;7374772;19;20170;-74
2024/01/14 03:06:39;;;;;;;24.98;9.98;;;;;;;;;;7371777;19;20182;-74
2024/01/14 03:09:06;;;;;;;22.25;9.38;;;;;;;;;;7392413;19;20576;-75
2024/01/14 03:11:37;;;;;;;24.05;9.75;;;;;;;;;;7374368;19;20002;-75
2024/01/14 03:14:02;;;;;;;25.67;10.02;;;;;;;;;;7372514;19;20006;-74
2024/01/14 03:16:28;;;;;;;22.20;9.95;;;;;;;;;;7373101;19;20030;-75
2024/01/14 03:18:53;;;;;;;26.52;10.73;;;;;;;;;;7371674;19;20010;-74
2024/01/14 03:21:18;;;;;;;21.20;9.75;;;;;;;;;;7372622;19;20212;-74
2024/01/14 03:23:44;;;;;;;20.27;9.98;;;;;;;;;;7393076;19;20014;-75
2024/01/14 03:26:10;;;;;;;26.50;9.93;;;;;;;;;;7370979;19;20106;-75
2024/01/14 03:28:35;;;;;;;24.20;10.23;;;;;;;;;;7368425;19;20002;-75
2024/01/14 03:31:00;;;;;;;23.20;9.93;;;;;;;;;;7371179;19;20006;-75
2024/01/14 03:33:26;;;;;;;22.48;9.95;;;;;;;;;;7369880;19;20006;-75
2024/01/14 03:35:51;;;;;;;18.75;8.20;;;;;;;;;;7392333;19;20567;-75
2024/01/14 03:38:17;;;;;;;22.83;10.80;;;;;;;;;;7369706;19;20002;-75
2024/01/14 03:40:42;;;;;;;23.33;9.63;;;;;;;;;;7370409;19;20010;-74
2024/01/14 03:43:07;;;;;;;23.92;10.23;;;;;;;;;;7369028;19;20011;-74
2024/01/14 03:45:33;;;;;;;22.60;10.90;;;;;;;;;;7370477;19;19995;-74
2024/01/14 03:47:58;;;;;;;24.15;9.85;;;;;;;;;;7389256;19;20041;-74
2024/01/14 03:50:23;;;;;;;23.05;10.38;;;;;;;;;;7369543;19;20484;-75
2024/01/14 03:52:49;;;;;;;22.90;10.18;;;;;;;;;;7369554;19;20011;-75
2024/01/14 03:55:14;;;;;;;23.77;10.45;;;;;;;;;;7369159;19;20014;-74
2024/01/14 03:57:39;;;;;;;23.90;10.15;;;;;;;;;;7366866;19;20019;-75
2024/01/14 04:00:07;;;;;;;23.95;10.75;;;;;;;;;;7391396;19;20023;-75
2024/01/14 04:02:32;;;;;;;21.52;10.13;;;;;;;;;;7372321;19;20006;-75
2024/01/14 04:04:57;;;;;;;22.73;9.70;;;;;;;;;;7370810;19;20417;-75
2024/01/14 04:07:22;;;;;;;23.95;10.50;;;;;;;;;;7366532;19;20014;-75
2024/01/14 04:09:48;;;;;;;21.40;9.38;;;;;;;;;;7367720;19;20021;-75
2024/01/14 04:12:13;;;;;;;23.85;9.90;;;;;;;;;;7390872;19;20518;-75
2024/01/14 04:14:38;;;;;;;21.83;10.63;;;;;;;;;;7366356;19;20003;-75
2024/01/14 04:17:04;;;;;;;25.67;10.52;;;;;;;;;;7368782;19;20007;-75
2024/01/14 04:19:29;;;;;;;24.83;10.43;;;;;;;;;;7368517;19;20006;-75
2024/01/14 04:21:54;;;;;;;22.70;10.30;;;;;;;;;;7369833;19;20003;-75
2024/01/14 04:24:20;;;;;;;23.15;10.50;;;;;;;;;;7367471;19;20007;-75
2024/01/14 04:26:45;;;;;;;24.63;10.05;;;;;;;;;;7389923;19;20081;-75
2024/01/14 04:29:10;;;;;;;21.65;9.38;;;;;;;;;;7367855;19;20042;-76
2024/01/14 04:31:36;;;;;;;23.05;9.35;;;;;;;;;;7368522;19;20570;-74
2024/01/14 04:34:03;;;;;;;21.27;9.68;;;;;;;;;;7367715;19;20014;-75
2024/01/14 04:36:29;;;;;;;21.08;10.10;;;;;;;;;;7369295;19;20017;-75
2024/01/14 04:38:54;;;;;;;20.85;9.27;;;;;;;;;;7389394;19;20007;-75
2024/01/14 04:41:20;;;;;;;21.80;10.13;;;;;;;;;;7367262;19;20014;-75
2024/01/14 04:43:46;;;;;;;21.42;9.23;;;;;;;;;;7366051;19;20038;-75
2024/01/14 04:46:11;;;;;;;22.98;9.82;;;;;;;;;;7371033;19;20678;-75
2024/01/14 04:48:37;;;;;;;25.45;10.23;;;;;;;;;;7367414;19;20006;-75
2024/01/14 04:51:02;;;;;;;23.35;9.50;;;;;;;;;;7390695;19;20500;-75
2024/01/14 04:53:27;;;;;;;23.05;10.45;;;;;;;;;;7367584;19;20010;-75
2024/01/14 04:55:53;;;;;;;28.55;11.90;;;;;;;;;;7366827;19;20010;-75
2024/01/14 04:58:18;;;;;;;25.35;10.23;;;;;;;;;;7368250;19;20038;-75
2024/01/14 05:00:44;;;;;;;21.83;9.80;;;;;;;;;;7372659;19;20448;-74
2024/01/14 05:03:09;;;;;;;24.92;10.02;;;;;;;;;;7411337;19;20014;-74
2024/01/14 05:05:34;;;;;;;23.17;9.70;;;;;;;;;;7372245;19;20447;-75
2024/01/14 05:08:00;;;;;;;24.20;9.90;;;;;;;;;;7366243;19;20050;-75
2024/01/14 05:10:25;;;;;;;25.75;10.15;;;;;;;;;;7368284;19;20075;-75
2024/01/14 05:12:51;;;;;;;27.00;10.38;;;;;;;;;;7367264;19;20011;-75
2024/01/14 05:15:16;;;;;;;21.00;9.02;;;;;;;;;;7380119;19;20045;-75
2024/01/14 05:17:41;;;;;;;18.48;9.55;;;;;;;;;;7378200;19;20003;-75
2024/01/14 05:20:08;;;;;;;22.77;9.75;;;;;;;;;;7365654;19;20006;-75
2024/01/14 05:22:34;;;;;;;22.25;9.82;;;;;;;;;;7365622;19;20934;-75
2024/01/14 05:24:59;;;;;;;21.33;9.43;;;;;;;;;;7377307;19;20011;-74
2024/01/14 05:27:25;;;;;;;26.00;10.85;;;;;;;;;;7383058;19;20022;-75
2024/01/14 05:29:50;;;;;;;23.85;11.52;;;;;;;;;;7398929;19;20006;-75
2024/01/14 05:32:16;;;;;;;23.17;10.95;;;;;;;;;;7374553;19;20093;-75
2024/01/14 05:34:43;;;;;;;22.83;9.88;;;;;;;;;;7366552;19;20020;-75
2024/01/14 05:37:08;;;;;;;26.88;11.35;;;;;;;;;;7366690;19;20381;-75
2024/01/14 05:39:34;;;;;;;26.08;11.93;;;;;;;;;;7366338;19;20009;-75
2024/01/14 05:41:59;;;;;;;24.08;10.52;;;;;;;;;;7388923;19;20002;-75
2024/01/14 05:44:25;;;;;;;25.23;10.18;;;;;;;;;;7365394;19;20041;-75
2024/01/14 05:46:51;;;;;;;28.95;10.88;;;;;;;;;;7365408;19;20727;-75
2024/01/14 05:49:16;;;;;;;30.83;12.75;;;;;;;;;;7367055;19;20017;-75
2024/01/14 05:51:42;;;;;;;26.80;10.85;;;;;;;;;;7370381;19;20010;-75
2024/01/14 05:54:08;;;;;;;28.02;11.43;;;;;;;;;;7393224;19;20023;-75
2024/01/14 05:56:34;;;;;;;23.50;10.00;;;;;;;;;;7366182;19;20007;-75
2024/01/14 05:59:00;;;;;;;28.60;11.43;;;;;;;;;;7367376;19;20139;-75
2024/01/14 06:01:27;;;;;;;30.52;12.82;;;;;;;;;;7369002;19;20006;-75
2024/01/14 06:03:52;;;;;;;28.52;11.65;;;;;;;;;;7366874;19;20017;-75
2024/01/14 06:06:17;;;;;;;31.52;12.75;;;;;;;;;;7375754;19;20011;-75
2024/01/14 06:08:43;;;;;;;30.42;11.80;;;;;;;;;;7398508;19;20026;-74
2024/01/14 06:11:09;;;;;;;29.00;11.52;;;;;;;;;;7378582;19;20070;-75
2024/01/14 06:13:34;;;;;;;31.80;12.00;;;;;;;;;;7378306;19;20021;-75
2024/01/14 06:16:00;;;;;;;33.72;14.93;;;;;;;;;;7376574;19;20594;-75
2024/01/14 06:18:28;;;;;;;30.52;12.95;;;;;;;;;;7365506;19;20039;-75
2024/01/14 06:20:55;;;;;;;30.35;12.05;;;;;;;;;;7387860;19;20402;-75
2024/01/14 06:23:21;;;;;;;31.73;12.63;;;;;;;;;;7364447;19;20014;-75
2024/01/14 06:25:46;;;;;;;34.30;13.55;;;;;;;;;;7366086;19;20042;-75
2024/01/14 06:28:11;;;;;;;34.83;14.18;;;;;;;;;;7369551;19;20017;-75
2024/01/14 06:30:37;;;;;;;31.45;13.18;;;;;;;;;;7373146;19;20043;-75
2024/01/14 06:33:02;;;;;;;39.25;14.95;;;;;;;;;;7398072;19;20516;-75
2024/01/14 06:35:28;;;;;;;32.78;14.07;;;;;;;;;;7373428;19;20017;-75
2024/01/14 06:37:53;;;;;;;36.22;13.35;;;;;;;;;;7372665;19;20006;-75
2024/01/14 06:40:21;;;;;;;35.38;13.88;;;;;;;;;;7369715;19;20010;-75
2024/01/14 06:42:46;;;;;;;30.63;11.07;;;;;;;;;;7362700;19;22016;-75
2024/01/14 06:45:12;;;;;;;36.97;14.02;;;;;;;;;;7383323;19;20002;-75
2024/01/14 06:47:38;;;;;;;37.45;14.88;;;;;;;;;;7369500;19;20035;-75
2024/01/14 06:50:04;;;;;;;36.85;14.60;;;;;;;;;;7372034;19;20034;-75
2024/01/14 06:52:30;;;;;;;37.33;15.18;;;;;;;;;;7370975;19;20007;-75
2024/01/14 06:54:55;;;;;;;40.15;15.00;;;;;;;;;;7372684;19;20007;-75
2024/01/14 06:57:20;;;;;;;42.33;15.02;;;;;;;;;;7371451;19;20006;-75
2024/01/14 06:59:46;;;;;;;46.55;15.18;;;;;;;;;;7393267;19;20002;-75
2024/01/14 07:02:14;;;;;;;38.72;14.15;;;;;;;;;;7360912;19;20100;-75
2024/01/14 07:04:40;;;;;;;45.17;15.35;;;;;;;;;;7367986;19;19998;-75
2024/01/14 07:07:06;;;;;;;39.90;15.98;;;;;;;;;;7368139;19;20021;-76
2024/01/14 07:09:33;;;;;;;40.88;15.55;;;;;;;;;;7367433;19;20010;-77
2024/01/14 07:11:59;;;;;;;46.13;17.20;;;;;;;;;;7388404;19;19995;-75
2024/01/14 07:14:24;;;;;;;50.88;18.23;;;;;;;;;;7388159;19;20039;-75
2024/01/14 07:16:50;;;;;;;47.45;19.38;;;;;;;;;;7364776;19;20013;-74
2024/01/14 07:19:15;;;;;;;41.88;16.90;;;;;;;;;;7366187;19;20330;-75
2024/01/14 07:21:40;;;;;;;44.80;17.08;;;;;;;;;;7368012;19;20393;-76
2024/01/14 07:24:06;;;;;;;43.70;15.38;;;;;;;;;;7387051;19;20010;-75
2024/01/14 07:26:31;;;;;;;44.28;18.02;;;;;;;;;;7370768;19;20015;-76
2024/01/14 07:28:56;;;;;;;41.30;15.05;;;;;;;;;;7375575;19;20020;-76
2024/01/14 07:31:30;;;;;;;39.38;15.43;;;;;;;;;;7372017;19;20009;-75
2024/01/14 07:33:56;;;;;;;37.22;14.35;;;;;;;;;;7369607;19;19998;-75
2024/01/14 07:36:21;;;;;;;46.55;16.25;;;;;;;;;;7349753;19;20024;-75
2024/01/14 07:38:47;;;;;;;37.08;14.77;;;;;;;;;;7387472;19;20011;-75
2024/01/14 07:41:16;;;;;;;45.40;16.63;;;;;;;;;;7370206;19;20026;-76
2024/01/14 07:43:43;;;;;;;46.10;16.00;;;;;;;;;;7366974;19;20314;-76
2024/01/14 07:46:08;;;;;;;40.80;16.30;;;;;;;;;;7383515;19;20521;-76
2024/01/14 07:48:34;;;;;;;46.42;16.63;;;;;;;;;;7365090;19;20006;-77
2024/01/14 07:51:01;;;;;;;39.05;14.73;;;;;;;;;;7370167;19;20006;-76
2024/01/14 07:53:26;;;;;;;46.35;16.60;;;;;;;;;;7370610;19;20013;-76
2024/01/14 07:55:52;;;;;;;47.88;16.50;;;;;;;;;;7386043;19;20038;-76
2024/01/14 07:58:17;;;;;;;39.78;15.65;;;;;;;;;;7408041;19;19999;-75
2024/01/14 08:00:43;;;;;;;43.08;16.13;;;;;;;;;;7380696;19;20006;-76
2024/01/14 08:03:09;;;;;;;47.67;17.15;;;;;;;;;;7372858;19;20038;-76
2024/01/14 08:05:35;;;;;;;42.70;16.27;;;;;;;;;;7366546;19;20350;-77
2024/01/14 08:08:01;;;;;;;32.42;12.80;;;;;;;;;;7368248;19;20040;-76
2024/01/14 08:10:27;;;;;;;46.55;16.80;;;;;;;;;;7391670;19;20011;-77
2024/01/14 08:12:52;;;;;;;42.83;16.17;;;;;;;;;;7368759;19;20091;-76
2024/01/14 08:15:17;;;;;;;40.70;13.77;;;;;;;;;;7369246;19;20021;-76
2024/01/14 08:17:43;;;;;;;42.28;16.90;;;;;;;;;;7367916;19;20006;-76
2024/01/14 08:20:10;;;;;;;42.97;15.90;;;;;;;;;;7372658;19;20014;-76
2024/01/14 08:22:36;;;;;;;43.05;15.75;;;;;;;;;;7384716;19;20374;-76
2024/01/14 08:25:02;;;;;;;43.13;15.95;;;;;;;;;;7372760;19;21072;-76
2024/01/14 08:27:28;;;;;;;65.50;26.30;;;;;;;;;;7365311;19;20007;-76
2024/01/14 08:29:54;;;;;;;43.10;17.83;;;;;;;;;;7372757;19;20014;-76
2024/01/14 08:32:19;;;;;;;37.63;15.15;;;;;;;;;;7371760;19;20031;-75
2024/01/14 08:34:44;;;;;;;43.90;15.88;;;;;;;;;;7369689;19;20017;-76
2024/01/14 08:37:10;;;;;;;40.67;17.10;;;;;;;;;;7391708;19;20014;-77
2024/01/14 08:39:35;;;;;;;41.13;14.65;;;;;;;;;;7368758;19;20010;-77
2024/01/14 08:42:00;;;;;;;48.38;16.05;;;;;;;;;;7370206;19;20014;-78
2024/01/14 08:44:26;;;;;;;41.38;17.35;;;;;;;;;;7371461;19;20021;-75
2024/01/14 08:46:54;;;;;;;40.00;17.25;;;;;;;;;;7370389;19;20338;-70
2024/01/14 08:49:19;;;;;;;40.03;16.95;;;;;;;;;;7390428;19;20022;-71
2024/01/14 08:51:45;;;;;;;42.58;16.65;;;;;;;;;;7368887;19;20018;-71
2024/01/14 08:54:11;;;;;;;43.63;17.17;;;;;;;;;;7378264;19;20027;-76
2024/01/14 08:56:36;;;;;;;41.33;16.73;;;;;;;;;;7380374;19;20006;-77
2024/01/14 08:59:01;;;;;;;47.60;18.50;;;;;;;;;;7384225;19;20007;-77
2024/01/14 09:01:27;;;;;;;55.63;22.55;;;;;;;;;;7405514;19;20011;-78
2024/01/14 09:03:53;;;;;;;66.53;26.95;;;;;;;;;;7376012;19;20002;-76
2024/01/14 09:06:18;;;;;;;48.40;18.20;;;;;;;;;;7377432;19;20097;-78
2024/01/14 09:08:44;;;;;;;44.45;18.80;;;;;;;;;;7378521;19;20010;-77
2024/01/14 09:11:10;;;;;;;65.85;29.73;;;;;;;;;;7378044;19;20023;-77
2024/01/14 09:13:35;;;;;;;43.47;17.42;;;;;;;;;;7404424;19;20010;-77
2024/01/14 09:16:01;;;;;;;47.10;19.02;;;;;;;;;;7380604;19;20310;-76
2024/01/14 09:18:27;;;;;;;43.45;17.52;;;;;;;;;;7401897;19;20402;-76
2024/01/14 09:20:52;;;;;;;45.83;17.75;;;;;;;;;;7376882;19;20003;-76
2024/01/14 09:23:18;;;;;;;37.88;16.00;;;;;;;;;;7381356;19;19999;-77
2024/01/14 09:25:44;;;;;;;31.52;13.52;;;;;;;;;;7388052;19;20095;-76
2024/01/14 09:28:09;;;;;;;36.33;14.50;;;;;;;;;;7408135;19;19999;-76
2024/01/14 09:30:35;;;;;;;35.75;14.32;;;;;;;;;;7369315;19;20022;-76
2024/01/14 09:33:00;;;;;;;35.88;14.65;;;;;;;;;;7373349;19;20010;-76
2024/01/14 09:35:25;;;;;;;34.47;12.63;;;;;;;;;;7382254;19;20508;-76
2024/01/14 09:37:51;;;;;;;33.88;12.23;;;;;;;;;;7363245;19;20010;-75
2024/01/14 09:40:19;;;;;;;30.50;12.55;;;;;;;;;;7382164;19;20007;-77
2024/01/14 09:42:46;;;;;;;31.48;12.30;;;;;;;;;;7363742;19;20850;-77
2024/01/14 09:45:11;;;;;;;26.83;11.40;;;;;;;;;;7364936;19;20648;-76
2024/01/14 09:47:39;;;;;;;21.95;9.63;;;;;;;;;;7364416;19;20006;-76
2024/01/14 09:50:05;;;;;;;24.95;10.00;;;;;;;;;;7364527;19;20025;-77
2024/01/14 09:52:32;;;;;;;23.45;9.85;;;;;;;;;;7385981;19;20002;-77
2024/01/14 09:54:58;;;;;;;25.63;11.38;;;;;;;;;;7364478;19;20014;-77
2024/01/14 09:57:24;;;;;;;28.08;10.82;;;;;;;;;;7374292;19;20473;-78
2024/01/14 09:59:50;;;;;;;25.58;11.07;;;;;;;;;;7372919;19;20011;-77
2024/01/14 10:02:17;;;;;;;26.08;12.02;;;;;;;;;;7376211;19;20042;-75
2024/01/14 10:04:42;;;;;;;24.40;9.65;;;;;;;;;;7378236;19;20006;-76
2024/01/14 10:07:09;;;;;;;27.88;11.20;;;;;;;;;;7404373;19;20049;-76
2024/01/14 10:09:35;;;;;;;29.17;10.80;;;;;;;;;;7378970;19;20014;-78
2024/01/14 10:12:01;;;;;;;31.38;13.77;;;;;;;;;;7377867;19;20007;-77
2024/01/14 10:14:27;;;;;;;27.33;11.55;;;;;;;;;;7377666;19;20030;-77
2024/01/14 10:16:55;;;;;;;26.35;11.85;;;;;;;;;;7367745;19;20010;-77
2024/01/14 10:19:20;;;;;;;23.88;10.73;;;;;;;;;;7389500;19;20085;-77
2024/01/14 10:21:46;;;;;;;20.48;9.05;;;;;;;;;;7366579;19;20002;-77
2024/01/14 10:24:11;;;;;;;25.00;10.85;;;;;;;;;;7366544;19;20037;-75
2024/01/14 10:26:36;;;;;;;25.65;10.40;;;;;;;;;;7367846;19;20486;-75
2024/01/14 10:29:05;;;;;;;24.92;10.93;;;;;;;;;;7362996;19;20074;-76
2024/01/14 10:31:31;;;;;;;26.95;11.35;;;;;;;;;;7389253;19;20039;-76
2024/01/14 10:33:59;;;;;;;23.75;11.05;;;;;;;;;;7365678;19;20018;-76
2024/01/14 10:36:27;;;;;;;26.65;11.70;;;;;;;;;;7366549;19;20030;-77
2024/01/14 10:38:52;;;;;;;27.65;11.60;;;;;;;;;;7366774;19;20011;-78
2024/01/14 10:41:18;;;;;;;21.17;9.73;;;;;;;;;;7368291;19;20035;-77
2024/01/14 10:43:43;;;;;;;30.05;12.40;;;;;;;;;;7368675;19;20374;-78
2024/01/14 10:46:09;;;;;;;29.20;12.68;;;;;;;;;;7390559;19;20356;-78
2024/01/14 10:48:38;;;;;;;27.90;11.55;;;;;;;;;;7372003;19;20058;-78
2024/01/14 10:51:09;;;;;;;25.00;9.95;;;;;;;;;;7381095;19;20047;-77
2024/01/14 10:53:52;;;;;;;21.40;9.55;;;;;;;;;;7382780;19;20023;-77
2024/01/14 10:56:24;;;;;;;22.95;9.68;;;;;;;;;;7369138;19;20010;-76
2024/01/14 10:58:53;;;;;;;26.92;9.90;;;;;;;;;;7367080;19;20010;-75
2024/01/14 11:01:20;;;;;;;22.02;9.35;;;;;;;;;;7388430;19;20485;-75
2024/01/14 11:03:45;;;;;;;29.45;10.93;;;;;;;;;;7364754;19;20017;-77
2024/01/14 11:06:12;;;;;;;33.17;11.27;;;;;;;;;;7370014;19;20018;-77
2024/01/14 11:08:38;;;;;;;27.42;11.70;;;;;;;;;;7366562;19;20014;-77
2024/01/14 11:11:04;;;;;;;29.42;12.93;;;;;;;;;;7367682;19;20042;-77
2024/01/14 11:13:32;;;;;;;30.10;12.45;;;;;;;;;;7387250;19;20023;-77
2024/01/14 11:16:13;;;;;;;33.55;13.25;;;;;;;;;;7367753;19;20116;-77
2024/01/14 11:18:56;;;;;;;30.40;12.93;;;;;;;;;;7380119;19;19998;-77
2024/01/14 11:21:33;;;;;;;24.73;11.48;;;;;;;;;;7383188;19;20010;-77
2024/01/14 11:23:59;;;;;;;32.60;13.00;;;;;;;;;;7372937;19;20337;-77
2024/01/14 11:26:24;;;;;;;31.45;12.43;;;;;;;;;;7376223;19;20010;-77
2024/01/14 11:28:51;;;;;;;31.85;12.63;;;;;;;;;;7370197;19;20042;-77
2024/01/14 11:31:17;;;;;;;30.92;13.45;;;;;;;;;;7394814;19;20378;-76
2024/01/14 11:33:46;;;;;;;25.75;11.85;;;;;;;;;;7371448;19;20026;-77
2024/01/14 11:36:11;;;;;;;30.90;12.50;;;;;;;;;;7378257;19;20067;-77
2024/01/14 11:38:57;;;;;;;34.92;13.23;;;;;;;;;;7393724;19;20003;-77
2024/01/14 11:41:32;;;;;;;31.00;13.48;;;;;;;;;;7398702;19;20038;-77
2024/01/14 11:44:05;;;;;;;36.80;13.68;;;;;;;;;;7374805;19;20085;-77
2024/01/14 11:46:39;;;;;;;28.90;12.30;;;;;;;;;;7395698;19;20050;-77
2024/01/14 11:49:12;;;;;;;35.08;14.07;;;;;;;;;;7371021;19;20006;-77
2024/01/14 11:51:43;;;;;;;34.72;13.55;;;;;;;;;;7372700;19;20027;-77
2024/01/14 11:54:10;;;;;;;37.70;14.02;;;;;;;;;;7375033;19;20042;-77
2024/01/14 11:56:36;;;;;;;32.05;13.00;;;;;;;;;;7374380;19;20034;-77
2024/01/14 11:59:06;;;;;;;34.20;14.10;;;;;;;;;;7372562;19;20006;-77
2024/01/14 12:01:32;;;;;;;30.33;12.97;;;;;;;;;;7395789;19;20013;-77
2024/01/14 12:04:05;;;;;;;31.15;11.80;;;;;;;;;;7372518;19;20021;-77
2024/01/14 12:06:45;;;;;;;29.02;13.35;;;;;;;;;;7385793;19;20009;-76
2024/01/14 12:09:12;;;;;;;35.63;13.90;;;;;;;;;;7401427;19;20013;-77
2024/01/14 12:11:39;;;;;;;32.05;13.70;;;;;;;;;;7402064;19;20010;-77
2024/01/14 12:14:04;;;;;;;29.92;12.88;;;;;;;;;;7397216;19;20014;-77
2024/01/14 12:16:33;;;;;;;28.83;12.50;;;;;;;;;;7419763;19;20005;-77
2024/01/14 12:18:59;;;;;;;34.78;13.85;;;;;;;;;;7393927;19;20006;-77
2024/01/14 12:21:26;;;;;;;32.13;13.95;;;;;;;;;;7392175;19;20002;-77
2024/01/14 12:23:52;;;;;;;37.40;14.07;;;;;;;;;;7386399;19;20002;-77
2024/01/14 12:26:21;;;;;;;38.20;15.00;;;;;;;;;;7389445;19;20007;-77
2024/01/14 12:28:47;;;;;;;33.70;14.38;;;;;;;;;;7384844;19;20460;-77
2024/01/14 12:31:21;;;;;;;30.30;13.98;;;;;;;;;;7412526;19;20014;-77
2024/01/14 12:33:47;;;;;;;33.65;13.68;;;;;;;;;;7389106;19;20360;-77
2024/01/14 12:36:14;;;;;;;32.22;12.60;;;;;;;;;;7388705;19;20041;-77
2024/01/14 12:38:40;;;;;;;35.60;14.90;;;;;;;;;;7367614;19;20002;-77
2024/01/14 12:41:06;;;;;;;33.30;13.57;;;;;;;;;;7371379;19;20052;-77
2024/01/14 12:43:31;;;;;;;35.00;13.82;;;;;;;;;;7393560;19;20002;-78
2024/01/14 12:45:57;;;;;;;30.15;12.32;;;;;;;;;;7371912;19;20744;-77
2024/01/14 12:48:23;;;;;;;31.90;13.82;;;;;;;;;;7366917;19;20010;-77
2024/01/14 12:50:59;;;;;;;33.40;14.07;;;;;;;;;;7371524;19;20010;-77
2024/01/14 12:53:27;;;;;;;33.50;13.45;;;;;;;;;;7371285;19;19999;-78
2024/01/14 12:56:06;;;;;;;34.13;13.32;;;;;;;;;;7379171;19;19994;-78
2024/01/14 12:58:32;;;;;;;35.03;14.10;;;;;;;;;;7391271;19;20002;-77
2024/01/14 13:00:57;;;;;;;37.97;15.07;;;;;;;;;;7369872;19;20086;-77
2024/01/14 13:03:23;;;;;;;31.73;14.27;;;;;;;;;;7369461;19;20013;-77
2024/01/14 13:05:48;;;;;;;35.85;13.73;;;;;;;;;;7369218;19;20003;-77
2024/01/14 13:08:14;;;;;;;32.78;13.43;;;;;;;;;;7368122;19;20002;-75
2024/01/14 13:10:39;;;;;;;34.33;13.73;;;;;;;;;;7369990;19;20535;-75
2024/01/14 13:13:05;;;;;;;34.30;13.25;;;;;;;;;;7390025;19;20017;-76
2024/01/14 13:15:30;;;;;;;35.28;14.48;;;;;;;;;;7370576;19;20094;-75
2024/01/14 13:17:56;;;;;;;33.75;14.10;;;;;;;;;;7372585;19;20002;-76
2024/01/14 13:20:21;;;;;;;32.45;13.88;;;;;;;;;;7371130;19;20007;-76
2024/01/14 13:22:47;;;;;;;32.97;14.50;;;;;;;;;;7373120;19;20017;-77
2024/01/14 13:25:12;;;;;;;32.83;13.00;;;;;;;;;;7393094;19;20002;-76
2024/01/14 13:27:38;;;;;;;33.67;12.10;;;;;;;;;;7378878;19;20010;-77
2024/01/14 13:30:04;;;;;;;35.08;14.05;;;;;;;;;;7378893;19;20304;-77
2024/01/14 13:32:31;;;;;;;32.45;13.95;;;;;;;;;;7370577;19;20528;-75
2024/01/14 13:34:56;;;;;;;35.03;13.80;;;;;;;;;;7368656;19;19996;-76
2024/01/14 13:37:22;;;;;;;36.45;14.52;;;;;;;;;;7389977;19;20008;-75
2024/01/14 13:39:47;;;;;;;35.83;13.82;;;;;;;;;;7366281;19;20027;-77
2024/01/14 13:42:13;;;;;;;28.20;12.90;;;;;;;;;;7370939;19;19999;-77
2024/01/14 13:44:38;;;;;;;34.95;14.88;;;;;;;;;;7380878;19;20098;-77
2024/01/14 13:47:05;;;;;;;39.22;16.98;;;;;;;;;;7368408;19;20707;-76
2024/01/14 13:49:30;;;;;;;33.33;13.38;;;;;;;;;;7391491;19;20003;-77
2024/01/14 13:51:56;;;;;;;37.03;14.90;;;;;;;;;;7376859;19;20002;-77
2024/01/14 13:54:21;;;;;;;34.67;14.57;;;;;;;;;;7392355;19;20031;-77
2024/01/14 13:56:50;;;;;;;31.17;13.23;;;;;;;;;;7375335;19;20009;-78
2024/01/14 13:59:15;;;;;;;36.05;13.63;;;;;;;;;;7369313;19;20391;-75
2024/01/14 14:01:41;;;;;;;34.08;13.88;;;;;;;;;;7368735;19;20017;-77
2024/01/14 14:04:07;;;;;;;31.45;11.93;;;;;;;;;;7398421;19;20111;-77
2024/01/14 14:06:35;;;;;;;28.52;12.38;;;;;;;;;;7366436;19;20006;-76
2024/01/14 14:09:01;;;;;;;30.50;12.52;;;;;;;;;;7365293;19;20019;-75
2024/01/14 14:11:26;;;;;;;31.70;13.43;;;;;;;;;;7368195;19;20035;-77
2024/01/14 14:13:51;;;;;;;27.20;11.80;;;;;;;;;;7365926;19;20010;-75